Time;durP1;ratioP1;P1;durP2;ratioP2;P2;SDS_P1;SDS_P2;PMS_P1;PMS_P2;Temp;Humidity;BMP_temperature;BMP_pressure;BME280_temperature;BME280_humidity;BME280_pressure;Samples;Min_cycle;Max_cycle;Signal;HPM_P1;HPM_P2
2022/11/14 00:01:34;;;;;;;;;;;5.70;99.90;;;4.79;100.00;95753.19;10505925;28;3306;-68
2022/11/14 00:06:46;;;;;;;;;;;5.70;99.90;;;4.90;100.00;95749.69;10504707;28;3166;-68
2022/11/14 00:11:49;;;;;;;;;;;5.70;99.90;;;4.77;100.00;95740.13;10511445;28;3167;-68
2022/11/14 00:16:51;;;;;;;;;;;5.70;99.90;;;4.87;100.00;95732.28;10505969;28;3236;-68
2022/11/14 00:21:54;;;;;;;;;;;5.80;99.90;;;4.85;100.00;95723.75;10507546;28;3540;-68
2022/11/14 00:26:57;;;;;;;;;;;5.70;99.90;;;4.71;100.00;95719.75;10511215;28;3171;-68
2022/11/14 00:32:00;;;;;;;;;;;5.60;99.90;;;4.57;100.00;95721.06;10525145;28;3145;-69
2022/11/14 00:37:02;;;;;;;;;;;5.50;99.90;;;4.60;100.00;95721.41;10510823;28;3151;-69
2022/11/14 00:42:05;;;;;;;;;;;5.60;99.90;;;4.42;100.00;95702.97;10500628;28;3065;-68
2022/11/14 00:47:08;;;;;;;;;;;5.50;99.90;;;4.28;100.00;95714.91;10498616;28;3441;-67
2022/11/14 00:52:10;;;;;;;;;;;5.20;99.90;;;4.12;100.00;95727.09;10502349;28;3321;-67
2022/11/14 00:57:13;;;;;;;;;;;5.20;99.90;;;4.16;100.00;95732.75;10506378;28;3262;-67
2022/11/14 01:02:16;;;;;;;;;;;5.20;99.90;;;4.07;100.00;95738.44;10508369;28;3352;-71
2022/11/14 01:07:19;;;;;;;;;;;5.20;99.90;;;4.08;100.00;95733.94;10511642;28;3252;-74
2022/11/14 01:12:21;;;;;;;;;;;5.00;99.90;;;4.11;100.00;95724.66;10505680;28;3242;-68
2022/11/14 01:17:27;;;;;;;;;;;4.80;99.90;;;4.16;100.00;95730.09;10498673;28;3342;-68
2022/11/14 01:22:30;;;;;;;;;;;5.10;99.90;;;4.24;100.00;95741.19;10504978;28;3396;-70
2022/11/14 01:27:33;;;;;;;;;;;5.30;99.90;;;4.26;100.00;95748.91;10509626;28;3274;-69
2022/11/14 01:32:36;;;;;;;;;;;4.60;99.90;;;4.20;100.00;95734.72;10509634;28;3301;-69
2022/11/14 01:37:39;;;;;;;;;;;5.20;99.90;;;4.23;100.00;95739.56;10512863;28;3321;-69
2022/11/14 01:42:42;;;;;;;;;;;5.10;99.90;;;4.29;100.00;95738.63;10504329;28;3340;-69
2022/11/14 01:47:45;;;;;;;;;;;5.30;99.90;;;4.42;100.00;95712.78;10507832;28;3017;-72
2022/11/14 01:52:47;;;;;;;;;;;5.40;99.90;;;4.38;100.00;95706.31;10506306;28;3329;-68
2022/11/14 01:57:50;;;;;;;;;;;5.30;99.90;;;4.44;100.00;95703.50;10499676;28;3317;-67
2022/11/14 02:03:02;;;;;;;;;;;5.30;99.90;;;4.27;100.00;95697.34;10495994;28;3069;-66
2022/11/14 02:08:05;;;;;;;;;;;5.30;99.90;;;4.15;100.00;95697.38;10500766;28;3372;-66
2022/11/14 02:13:08;;;;;;;;;;;;;;;4.02;100.00;95697.63;10508270;28;3306;-67
2022/11/14 02:18:11;;;;;;;;;;;5.00;99.90;;;4.05;100.00;95694.47;10496538;28;3355;-68
2022/11/14 02:23:16;;;;;;;;;;;4.90;99.90;;;4.03;100.00;95675.28;10499377;28;3365;-68
2022/11/14 02:28:19;;;;;;;;;;;5.00;99.90;;;4.01;100.00;95677.41;10509271;28;2990;-67
2022/11/14 02:33:22;;;;;;;;;;;4.90;99.90;;;4.02;100.00;95690.44;10497443;28;3294;-67
2022/11/14 02:38:24;;;;;;;;;;;4.90;99.90;;;4.02;100.00;95702.94;10508673;28;3317;-70
2022/11/14 02:43:27;;;;;;;;;;;4.90;99.90;;;4.02;100.00;95705.59;10507647;28;3291;-69
2022/11/14 02:48:30;;;;;;;;;;;4.90;99.90;;;4.03;100.00;95699.25;10499207;28;3333;-68
2022/11/14 02:53:35;;;;;;;;;;;5.00;99.90;;;4.08;100.00;95688.72;10505565;28;3326;-68
2022/11/14 02:58:38;;;;;;;;;;;5.10;99.90;;;4.06;100.00;95674.81;10504418;28;3305;-68
2022/11/14 03:03:40;;;;;;;;;;;5.00;99.90;;;4.12;100.00;95657.91;10503120;28;3341;-75
2022/11/14 03:08:43;;;;;;;;;;;5.10;99.90;;;3.97;100.00;95663.75;10498907;28;3316;-68
2022/11/14 03:13:46;;;;;;;;;;;4.90;99.90;;;3.63;100.00;95654.78;10502965;28;3297;-67
2022/11/14 03:18:48;;;;;;;;;;;4.70;99.90;;;3.74;100.00;95655.78;10504465;28;2946;-69
2022/11/14 03:23:51;;;;;;;;;;;4.60;99.90;;;3.69;100.00;95653.84;10514275;28;3226;-70
2022/11/14 03:28:54;;;;;;;;;;;4.60;99.90;;;3.65;100.00;95668.63;10508308;28;3424;-68
2022/11/14 03:33:57;;;;;;;;;;;4.60;99.90;;;3.54;100.00;95661.47;10514420;28;3333;-68
2022/11/14 03:39:00;;;;;;;;;;;4.50;99.90;;;3.28;100.00;95659.28;10507655;28;3339;-67
2022/11/14 03:44:03;;;;;;;;;;;;;;;3.32;100.00;95661.25;10506348;28;3341;-68
2022/11/14 03:49:06;;;;;;;;;;;;;;;3.23;100.00;95654.66;10507424;28;3013;-67
2022/11/14 03:54:10;;;;;;;;;;;;;;;3.29;100.00;95661.69;10513559;28;3293;-69
2022/11/14 03:59:13;;;;;;;;;;;;;;;3.37;100.00;95650.75;10505327;28;3393;-69
2022/11/14 04:04:18;;;;;;;;;;;;;;;3.40;100.00;95665.41;10508009;28;3321;-68
2022/11/14 04:09:21;;;;;;;;;;;;;;;3.52;100.00;95674.19;10508864;28;3305;-66
2022/11/14 04:14:24;;;;;;;;;;;;;;;3.55;100.00;95675.56;10509610;28;3306;-68
2022/11/14 04:19:27;;;;;;;;;;;;;;;3.50;100.00;95693.03;10502868;28;3322;-67
2022/11/14 04:24:30;;;;;;;;;;;;;;;3.62;100.00;95701.00;10503907;28;3367;-67
2022/11/14 04:29:33;;;;;;;;;;;;;;;3.47;100.00;95674.06;10504262;28;3249;-69
2022/11/14 04:34:37;;;;;;;;;;;;;;;3.40;100.00;95670.72;10510741;28;3328;-76
2022/11/14 04:39:40;;;;;;;;;;;;;;;3.43;100.00;95671.06;10513250;28;3270;-71
2022/11/14 04:44:43;;;;;;;;;;;;;;;3.33;100.00;95656.75;10502137;28;3270;-69
2022/11/14 04:49:46;;;;;;;;;;;;;;;3.14;100.00;95662.16;10506860;28;3339;-68
2022/11/14 04:54:49;;;;;;;;;;;;;;;3.36;100.00;95661.59;10505225;28;3081;-66
2022/11/14 04:59:52;;;;;;;;;;;;;;;3.08;100.00;95665.72;10503342;28;3424;-68
2022/11/14 05:04:56;;;;;;;;;;;;;;;3.25;100.00;95666.69;10507032;28;3357;-67
2022/11/14 05:09:59;;;;;;;;;;;;;;;3.16;100.00;95657.41;10510289;28;3277;-67
2022/11/14 05:15:02;;;;;;;;;;;;;;;3.19;100.00;95653.50;10508873;28;3054;-67
2022/11/14 05:20:05;;;;;;;;;;;;;;;3.15;100.00;95652.34;10504576;28;2970;-68
2022/11/14 05:25:08;;;;;;;;;;;;;;;3.28;100.00;95654.78;10506891;28;3301;-71
2022/11/14 05:30:11;;;;;;;;;;;;;;;3.38;100.00;95656.88;10506449;28;3302;-68
2022/11/14 05:35:15;;;;;;;;;;;;;;;3.42;100.00;95650.03;10501713;28;3321;-68
2022/11/14 05:40:18;;;;;;;;;;;;;;;3.50;100.00;95658.50;10504996;28;3030;-71
2022/11/14 05:45:22;;;;;;;;;;;;;;;3.74;100.00;95666.44;10516874;28;3279;-74
2022/11/14 05:50:25;;;;;;;;;;;;;;;3.63;100.00;95678.72;10509947;28;3352;-71
2022/11/14 05:55:28;;;;;;;;;;;;;;;3.64;100.00;95698.13;10510252;28;3261;-70
2022/11/14 06:00:32;;;;;;;;;;;;;;;3.64;100.00;95690.94;10508770;28;3272;-69
2022/11/14 06:05:44;;;;;;;;;;;;;;;3.44;100.00;95698.47;10502989;28;3401;-70
2022/11/14 06:10:47;;;;;;;;;;;;;;;3.44;100.00;95709.09;10502292;28;3000;-70
2022/11/14 06:15:50;;;;;;;;;;;;;;;3.43;100.00;95713.56;10498516;28;2979;-71
2022/11/14 06:20:56;;;;;;;;;;;;;;;3.24;100.00;95722.69;10503076;28;3290;-70
2022/11/14 06:26:00;;;;;;;;;;;;;;;3.04;100.00;95716.88;10491762;28;3301;-70
2022/11/14 06:31:03;;;;;;;;;;;;;;;3.10;100.00;95716.78;10499559;28;3309;-69
2022/11/14 06:36:06;;;;;;;;;;;;;;;3.41;100.00;95702.38;10491884;28;3448;-71
2022/11/14 06:41:10;;;;;;;;;;;;;;;3.50;100.00;95709.00;10501373;28;3259;-69
2022/11/14 06:46:13;;;;;;;;;;;;;;;3.52;100.00;95706.91;10534915;28;3322;-69
2022/11/14 06:51:16;;;;;;;;;;;;;;;3.61;100.00;95717.97;10499755;28;3179;-68
2022/11/14 06:56:20;;;;;;;;;;;;;;;3.79;100.00;95731.16;10496058;28;3254;-70
2022/11/14 07:01:24;;;;;;;;;;;;;;;3.76;100.00;95722.84;10513342;28;3413;-69
2022/11/14 07:06:27;;;;;;;;;;;;;;;3.50;100.00;95718.81;10509244;28;3338;-71
2022/11/14 07:11:32;;;;;;;;;;;;;;;3.71;100.00;95699.63;10516804;28;3413;-73
2022/11/14 07:16:35;;;;;;;;;;;;;;;3.77;100.00;95705.84;10512154;28;3252;-69
2022/11/14 07:21:38;;;;;;;;;;;;;;;3.77;100.00;95704.00;10505254;28;3269;-69
2022/11/14 07:26:41;;;;;;;;;;;;;;;3.82;100.00;95699.81;10509241;28;3687;-69
2022/11/14 07:31:44;;;;;;;;;;;;;;;3.84;100.00;95705.75;10510490;28;3316;-70
2022/11/14 07:36:49;;;;;;;;;;;;;;;3.96;100.00;95717.97;10512189;28;3253;-69
2022/11/14 07:41:52;;;;;;;;;;;;;;;3.82;100.00;95716.63;10509247;28;3282;-69
2022/11/14 07:46:56;;;;;;;;;;;;;;;3.88;100.00;95718.34;10515249;28;3356;-69
2022/11/14 07:51:59;;;;;;;;;;;;;;;3.67;100.00;95714.41;10510453;28;3332;-70
2022/11/14 07:57:02;;;;;;;;;;;;;;;3.80;100.00;95700.88;10510214;28;3208;-70
2022/11/14 08:02:05;;;;;;;;;;;;;;;3.66;100.00;95688.88;10512994;28;3421;-71
2022/11/14 08:07:08;;;;;;;;;;;;;;;3.74;100.00;95683.19;10508227;28;3317;-76
2022/11/14 08:12:12;;;;;;;;;;;;;;;3.60;100.00;95675.69;10510830;28;3294;-73
2022/11/14 08:17:16;;;;;;;;;;;;;;;3.56;100.00;95675.34;10509000;28;3340;-73
2022/11/14 08:22:19;;;;;;;;;;;;;;;3.29;100.00;95682.16;10501322;28;3365;-71
2022/11/14 08:27:22;;;;;;;;;;;;;;;3.35;100.00;95671.41;10507558;28;3251;-71
2022/11/14 08:32:25;;;;;;;;;;;;;;;3.38;100.00;95659.53;10511696;28;3428;-70
2022/11/14 08:37:28;;;;;;;;;;;;;;;3.55;100.00;95671.06;10505603;28;2966;-69
2022/11/14 08:42:31;;;;;;;;;;;;;;;3.45;100.00;95662.88;10502300;28;3318;-69
2022/11/14 08:47:35;;;;;;;;;;;;;;;3.52;100.00;95679.50;10505665;28;3269;-70
2022/11/14 08:52:38;;;;;;;;;;;;;;;3.52;100.00;95684.81;10498415;28;2974;-71
2022/11/14 08:57:42;;;;;;;;;;;;;;;3.50;100.00;95681.59;10492857;28;3325;-69
2022/11/14 09:02:51;;;;;;;;;;;;;;;3.43;100.00;95670.25;10500512;28;3460;-69
2022/11/14 09:07:59;;;;;;;;;;;;;;;3.61;100.00;95666.69;10507827;28;3238;-69
2022/11/14 09:13:02;;;;;;;;;;;;;;;3.94;100.00;95658.06;10499038;28;3277;-69
2022/11/14 09:18:05;;;;;;;;;;;;;;;4.14;100.00;95645.22;10511303;28;3320;-71
2022/11/14 09:23:08;;;;;;;;;;;;;;;4.31;100.00;95651.38;10504123;28;2959;-70
2022/11/14 09:28:12;;;;;;;;;;;;;;;4.64;100.00;95643.72;10503318;28;3329;-68
2022/11/14 09:33:15;;;;;;;;;;;;;;;5.02;100.00;95651.03;10498719;28;3357;-68
2022/11/14 09:38:18;;;;;;;;;;;;;;;5.15;100.00;95650.72;10496447;28;3253;-69
2022/11/14 09:43:21;;;;;;;;;;;;;;;5.37;100.00;95664.94;10494107;28;3270;-69
2022/11/14 09:48:29;;;;;;;;;;;;;;;5.40;100.00;95669.75;10494760;28;3270;-69
2022/11/14 09:53:33;;;;;;;;;;;;;;;5.57;100.00;95663.63;10493313;28;3309;-70
2022/11/14 09:58:36;;;;;;;;;;;;;;;5.79;100.00;95667.16;10498046;28;3327;-73
2022/11/14 10:03:41;;;;;;;;;;;;;;;5.67;100.00;95666.44;10498200;28;3297;-70
2022/11/14 10:08:44;;;;;;;;;;;;;;;5.89;100.00;95667.28;10513368;28;3317;-69
2022/11/14 10:13:48;;;;;;;;;;;;;;;6.00;100.00;95662.13;10503316;28;3342;-70
2022/11/14 10:18:51;;;;;;;;;;;;;;;6.11;100.00;95669.22;10502435;28;2950;-69
2022/11/14 10:23:54;;;;;;;;;;;;;;;6.28;100.00;95675.28;10500564;28;3305;-69
2022/11/14 10:28:58;;;;;;;;;;;;;;;6.40;100.00;95662.59;10498222;28;3281;-69
2022/11/14 10:34:01;;;;;;;;;;;;;;;6.41;100.00;95650.88;10489586;28;3426;-68
2022/11/14 10:39:04;;;;;;;;;;;;;;;6.67;100.00;95657.28;10507266;28;3396;-69
2022/11/14 10:44:07;;;;;;;;;;;;;;;6.94;100.00;95654.63;10504801;28;3267;-68
2022/11/14 10:49:10;;;;;;;;;;;;;;;7.01;100.00;95657.09;10502779;28;3489;-69
2022/11/14 10:54:14;;;;;;;;;;;;;;;7.06;100.00;95670.47;10510385;28;3340;-70
2022/11/14 10:59:17;;;;;;;;;;;;;;;7.07;100.00;95671.31;10494429;28;3348;-70
2022/11/14 11:04:20;;;;;;;;;;;;;;;7.12;100.00;95674.00;10490300;28;3274;-69
2022/11/14 11:14:48;;;;;;;;;;;;;;;7.02;100.00;95691.56;10499838;28;3361;-74
2022/11/14 11:19:51;;;;;;;;;;;;;;;6.74;100.00;95706.00;10495143;28;3393;-70
2022/11/14 11:24:54;;;;;;;;;;;;;;;6.64;100.00;95707.75;10506458;28;3050;-69
2022/11/14 11:29:57;;;;;;;;;;;;;;;6.45;100.00;95718.75;10501647;28;3377;-70
2022/11/14 11:35:01;;;;;;;;;;;;;;;6.29;100.00;95730.28;10497248;28;3281;-75
2022/11/14 11:40:06;;;;;;;;;;;;;;;6.24;100.00;95738.25;10500629;28;2982;-75
2022/11/14 11:45:09;;;;;;;;;;;;;;;6.27;100.00;95732.38;10507663;28;3429;-69
2022/11/14 11:50:12;;;;;;;;;;;;;;;6.33;100.00;95744.75;10505393;28;3262;-69
2022/11/14 11:55:18;;;;;;;;;;;;;;;6.41;100.00;95733.63;10512007;28;3364;-69
2022/11/14 12:00:22;;;;;;;;;;;;;;;6.60;100.00;95731.47;10526977;28;3373;-71
2022/11/14 12:05:25;;;;;;;;;;;;;;;6.86;100.00;95723.72;10504510;28;3356;-70
2022/11/14 12:10:28;;;;;;;;;;;;;;;7.25;100.00;95727.06;10513326;28;3354;-69
2022/11/14 12:15:31;;;;;;;;;;;;;;;7.54;100.00;95719.56;10515650;28;3351;-70
2022/11/14 12:20:35;;;;;;;;;;;;;;;7.81;100.00;95708.78;10515973;28;2978;-69
2022/11/14 12:25:38;;;;;;;;;;;;;;;7.91;100.00;95724.13;10508800;28;3311;-69
2022/11/14 12:30:41;;;;;;;;;;;;;;;8.20;100.00;95727.22;10507558;28;3575;-69
2022/11/14 12:35:44;;;;;;;;;;;;;;;8.40;100.00;95727.38;10503950;28;3311;-70
2022/11/14 12:40:47;;;;;;;;;;;;;;;8.55;100.00;95735.47;10504942;28;3227;-68
2022/11/14 12:45:50;;;;;;;;;;;;;;;8.52;100.00;95729.84;10509542;28;3317;-70
2022/11/14 12:50:54;;;;;;;;;;;;;;;8.80;100.00;95732.09;10508170;28;3167;-69
2022/11/14 12:55:57;;;;;;;;;;;;;;;8.87;100.00;95737.22;10506382;28;3332;-69
2022/11/14 13:01:00;;;;;;;;;;;;;;;8.95;100.00;95736.69;10513268;28;3267;-71
2022/11/14 13:06:04;;;;;;;;;;;;;;;9.13;100.00;95735.41;10500586;28;3255;-69
2022/11/14 13:11:07;;;;;;;;;;;;;;;9.13;100.00;95730.84;10500963;28;2998;-69
2022/11/14 13:21:48;;;;;;;;;;;;;;;9.44;100.00;95725.53;10448482;28;3334;-70
2022/11/14 13:26:51;;;;;;;;;;;;;;;9.64;100.00;95717.47;10501806;28;3373;-69
2022/11/14 13:31:54;;;;;;;;;;;;;;;9.93;100.00;95723.13;10495100;28;2951;-69
2022/11/14 13:36:57;;;;;;;;;;;;;;;10.19;100.00;95715.00;10504901;28;3219;-69
2022/11/14 13:42:00;;;;;;;;;;;;;;;10.35;100.00;95707.72;10509178;28;3262;-70
2022/11/14 13:47:08;;;;;;;;;;;;;;;10.43;100.00;95721.44;10505403;28;3447;-70
2022/11/14 13:52:11;;;;;;;;;;;;;;;10.16;100.00;95713.66;10498045;28;3348;-72
2022/11/14 13:57:14;;;;;;;;;;;;;;;10.25;100.00;95714.75;10506317;28;3256;-72
2022/11/14 14:02:18;;;;;;;;;;;;;;;9.97;100.00;95712.63;10500658;28;3358;-77
2022/11/14 14:07:21;;;;;;;;;;;;;;;9.60;100.00;95708.34;10510773;28;3338;-71
2022/11/14 14:12:24;;;;;;;;;;;;;;;9.54;100.00;95709.41;10499901;28;3469;-70
2022/11/14 14:17:27;;;;;;;;;;;;;;;9.58;100.00;95702.44;10501943;28;3258;-71
2022/11/14 14:22:30;;;;;;;;;;;;;;;9.43;100.00;95703.25;10499620;28;3360;-69
2022/11/14 14:27:34;;;;;;;;;;;;;;;9.40;100.00;95702.97;10504473;28;3250;-69
2022/11/14 14:32:37;;;;;;;;;;;;;;;9.22;100.00;95709.66;10500971;28;3381;-71
2022/11/14 14:37:44;;;;;;;;;;;;;;;9.00;100.00;95706.41;10504871;28;3099;-69
2022/11/14 14:42:48;;;;;;;;;;;;;;;8.86;100.00;95719.53;10502579;28;3314;-69
2022/11/14 14:47:52;;;;;;;;;;;;;;;8.88;100.00;95712.81;10494726;28;3294;-70
2022/11/14 14:52:55;;;;;;;;;;;;;;;8.67;100.00;95716.50;10505814;28;3262;-70
2022/11/14 14:57:58;;;;;;;;;;;;;;;8.55;100.00;95719.41;10499904;28;3324;-71
2022/11/14 15:03:01;;;;;;;;;;;;;;;8.49;100.00;95717.78;10502420;28;3384;-74
2022/11/14 15:08:04;;;;;;;;;;;;;;;8.29;100.00;95720.34;10504955;28;3388;-72
2022/11/14 15:13:07;;;;;;;;;;;;;;;8.21;100.00;95718.97;10508455;28;3258;-70
2022/11/14 15:18:11;;;;;;;;;;;;;;;8.02;100.00;95721.25;10497570;28;3313;-69
2022/11/14 15:23:14;;;;;;;;;;;;;;;8.01;100.00;95719.63;10511114;28;3445;-71
2022/11/14 15:28:17;;;;;;;;;;;;;;;7.82;100.00;95726.44;10509468;28;3218;-74
2022/11/14 15:33:20;;;;;;;;;;;;;;;7.65;100.00;95725.81;10499039;28;3266;-71
2022/11/14 15:38:23;;;;;;;;;;;;;;;7.48;100.00;95731.28;10509971;28;3337;-71
2022/11/14 15:43:49;;;;;;;;;;;;;;;7.30;100.00;95729.78;10544987;27;3437;-69
2022/11/14 15:48:52;;;;;;;;;;;;;;;7.33;100.00;95723.94;10510123;28;3041;-74
2022/11/14 15:53:55;;;;;;;;;;;;;;;7.27;100.00;95720.41;10514632;28;3241;-70
2022/11/14 15:59:03;;;;;;;;;;;;;;;7.28;100.00;95718.53;10508202;28;3282;-70
2022/11/14 16:04:06;;;;;;;;;;;;;;;7.17;100.00;95719.50;10505339;28;3396;-70
2022/11/14 16:09:09;;;;;;;;;;;;;;;7.04;100.00;95715.38;10503516;28;3376;-68
2022/11/14 16:14:12;;;;;;;;;;;;;;;6.93;100.00;95719.78;10511705;28;3286;-70
2022/11/14 16:19:16;;;;;;;;;;;;;;;6.95;100.00;95725.72;10499715;28;3433;-73
2022/11/14 16:24:19;;;;;;;;;;;;;;;6.95;100.00;95711.56;10503413;28;3258;-77
2022/11/14 16:29:23;;;;;;;;;;;;;;;6.87;100.00;95720.00;10510803;28;3005;-70
2022/11/14 16:34:26;;;;;;;;;;;;;;;6.78;100.00;95717.78;10511111;28;3325;-71
2022/11/14 16:39:29;;;;;;;;;;;;;;;6.86;100.00;95724.53;10502237;28;3432;-70
2022/11/14 16:44:37;;;;;;;;;;;;;;;6.88;100.00;95727.78;10509980;28;3369;-69
2022/11/14 16:49:48;;;;;;;;;;;;;;;6.86;100.00;95732.56;10518021;28;3005;-69
2022/11/14 16:54:51;;;;;;;;;;;;;;;6.77;100.00;95736.75;10501537;28;3101;-70
2022/11/14 16:59:56;;;;;;;;;;;;;;;6.77;100.00;95736.75;10510371;28;3695;-71
2022/11/14 17:05:00;;;;;;;;;;;;;;;6.82;100.00;95728.78;10509874;28;3423;-70
2022/11/14 17:10:04;;;;;;;;;;;;;;;6.98;100.00;95722.53;10507360;28;3239;-70
2022/11/14 17:15:07;;;;;;;;;;;;;;;6.89;100.00;95724.06;10504137;28;3306;-70
2022/11/14 17:20:10;;;;;;;;;;;;;;;6.59;100.00;95734.38;10509075;28;3999;-71
2022/11/14 17:25:14;;;;;;;;;;;;;;;6.49;100.00;95730.56;10506637;28;3265;-73
2022/11/14 17:30:17;;;;;;;;;;;;;;;6.38;100.00;95726.13;10512078;28;2978;-70
2022/11/14 17:35:20;;;;;;;;;;;;;;;6.39;100.00;95725.06;10502343;28;3355;-70
2022/11/14 17:40:24;;;;;;;;;;;;;;;6.38;100.00;95733.34;10503041;28;3270;-70
2022/11/14 17:45:27;;;;;;;;;;;;;;;6.53;100.00;95724.69;10505748;28;3289;-70
2022/11/14 17:50:33;;;;;;;;;;;;;;;6.49;100.00;95725.22;10514104;28;3250;-74
2022/11/14 17:55:40;;;;;;;;;;;;;;;6.56;100.00;95729.56;10510468;28;3317;-72
2022/11/14 18:00:43;;;;;;;;;;;;;;;6.54;100.00;95726.31;10496778;28;3360;-72
2022/11/14 18:05:46;;;;;;;;;;;;;;;6.50;100.00;95724.16;10501704;28;3382;-72
2022/11/14 18:10:49;;;;;;;;;;;;;;;6.42;100.00;95721.91;10509338;28;2955;-72
2022/11/14 18:15:52;;;;;;;;;;;;;;;6.43;100.00;95730.75;10515242;28;3329;-72
2022/11/14 18:20:55;;;;;;;;;;;;;;;6.42;100.00;95724.56;10510073;28;3384;-69
2022/11/14 18:25:59;;;;;;;;;;;;;;;6.27;100.00;95726.25;10511088;28;3251;-67
2022/11/14 18:31:06;;;;;;;;;;;;;;;6.16;100.00;95727.97;10511244;28;3000;-69
2022/11/14 18:36:10;;;;;;;;;;;;;;;6.13;100.00;95726.59;10506736;28;3291;-72
2022/11/14 18:41:13;;;;;;;;;;;;;;;6.06;100.00;95730.50;10511216;28;3281;-69
2022/11/14 18:46:16;;;;;;;;;;;;;;;6.13;100.00;95733.81;10499692;28;3357;-69
2022/11/14 18:51:19;;;;;;;;;;;;;;;6.09;100.00;95730.00;10501129;28;3336;-70
2022/11/14 18:56:24;;;;;;;;;;;;;;;6.09;100.00;95725.47;10523395;28;3006;-72
2022/11/14 19:01:28;;;;;;;;;;;;;;;6.17;100.00;95721.56;10524258;28;3017;-70
2022/11/14 19:06:31;;;;;;;;;;;;;;;6.09;100.00;95724.66;10512261;28;3314;-69
2022/11/14 19:16:55;;;;;;;;;;;;;;;6.04;100.00;95721.94;10516323;28;3453;-72
2022/11/14 19:21:59;;;;;;;;;;;;;;;5.93;100.00;95724.47;10524754;28;3403;-70
2022/11/14 19:27:02;;;;;;;;;;;;;;;5.77;100.00;95738.59;10521630;28;3306;-71
2022/11/14 19:32:05;;;;;;;;;;;;;;;5.65;100.00;95741.34;10517968;28;3282;-71
2022/11/14 19:37:09;;;;;;;;;;;;;;;5.56;100.00;95742.00;10513541;28;3525;-70
2022/11/14 19:42:13;;;;;;;;;;;;;;;5.44;100.00;95739.41;10522377;28;3254;-70
2022/11/14 19:47:16;;;;;;;;;;;;;;;5.31;100.00;95743.19;10523749;28;3006;-69
2022/11/14 19:52:19;;;;;;;;;;;;;;;5.24;100.00;95745.22;10519511;28;3384;-69
2022/11/14 19:57:23;;;;;;;;;;;;;;;5.28;100.00;95735.69;10505823;28;3271;-71
2022/11/14 20:02:28;;;;;;;;;;;;;;;5.24;100.00;95734.56;10510689;28;3404;-68
2022/11/14 20:07:31;;;;;;;;;;;;;;;5.23;100.00;95740.94;10516423;28;3239;-69
2022/11/14 20:12:35;;;;;;;;;;;;;;;5.09;100.00;95737.78;10520980;28;3298;-69
2022/11/14 20:17:38;;;;;;;;;;;;;;;5.27;100.00;95733.25;10502921;28;2998;-70
2022/11/14 20:22:42;;;;;;;;;;;;;;;5.26;100.00;95724.44;10513110;28;3330;-69
2022/11/14 20:27:45;;;;;;;;;;;;;;;5.21;100.00;95729.69;10522816;28;3416;-72
2022/11/14 20:32:48;;;;;;;;;;;;;;;5.21;100.00;95734.22;10514554;28;3376;-70
2022/11/14 20:37:51;;;;;;;;;;;;;;;5.14;100.00;95727.19;10521433;28;2993;-71
2022/11/14 20:42:59;;;;;;;;;;;;;;;5.14;100.00;95724.50;10515383;27;3282;-70
2022/11/14 20:48:02;;;;;;;;;;;;;;;5.05;100.00;95709.19;10519112;28;3266;-73
2022/11/14 20:53:05;;;;;;;;;;;;;;;4.99;100.00;95716.25;10520966;28;3329;-71
2022/11/14 20:58:08;;;;;;;;;;;;;;;4.86;100.00;95714.72;10521843;28;3496;-71
2022/11/14 21:03:12;;;;;;;;;;;;;;;4.76;100.00;95711.03;10510903;28;3146;-70
2022/11/14 21:08:15;;;;;;;;;;;;;;;4.66;100.00;95706.34;10507986;28;3469;-68
2022/11/14 21:18:40;;;;;;;;;;;;;;;4.67;100.00;95707.97;10515360;28;3267;-69
2022/11/14 21:23:49;;;;;;;;;;;;;;;4.47;100.00;95707.56;10508101;28;3409;-71
2022/11/14 21:28:52;;;;;;;;;;;;;;;4.52;100.00;95694.38;10512722;28;3380;-70
2022/11/14 21:33:56;;;;;;;;;;;;;;;4.50;100.00;95688.47;10506502;28;3301;-70
2022/11/14 21:38:59;;;;;;;;;;;;;;;4.56;100.00;95682.19;10510976;28;2998;-69
2022/11/14 21:44:03;;;;;;;;;;;;;;;4.51;100.00;95679.41;10507041;28;3017;-70
2022/11/14 21:49:06;;;;;;;;;;;;;;;4.37;100.00;95678.91;10507594;28;3386;-70
2022/11/14 21:54:09;;;;;;;;;;;;;;;4.43;100.00;95674.47;10512916;28;3325;-74
2022/11/14 21:59:13;;;;;;;;;;;;;;;4.43;100.00;95671.81;10513071;28;3354;-72
2022/11/14 22:04:17;;;;;;;;;;;;;;;4.30;100.00;95680.88;10504632;28;3305;-70
2022/11/14 22:09:21;;;;;;;;;;;;;;;4.32;100.00;95676.13;10501284;28;3552;-70
2022/11/14 22:14:24;;;;;;;;;;;;;;;4.32;100.00;95676.94;10509197;28;3259;-70
2022/11/14 22:19:27;;;;;;;;;;;;;;;4.30;100.00;95675.56;10502015;28;3313;-71
2022/11/14 22:24:30;;;;;;;;;;;;;;;4.34;100.00;95682.03;10503234;28;3018;-70
2022/11/14 22:29:34;;;;;;;;;;;;;;;4.23;100.00;95683.69;10499373;28;3667;-69
2022/11/14 22:34:37;;;;;;;;;;;;;;;4.31;100.00;95688.63;10503621;28;3309;-69
2022/11/14 22:39:40;;;;;;;;;;;;;;;4.27;100.00;95684.84;10506180;28;3321;-69
2022/11/14 22:44:43;;;;;;;;;;;;;;;4.23;100.00;95693.53;10509347;28;3282;-70
2022/11/14 22:49:46;;;;;;;;;;;;;;;4.25;100.00;95684.25;10501678;28;3800;-70
2022/11/14 22:54:49;;;;;;;;;;;;;;;4.09;100.00;95690.31;10506370;28;2943;-69
2022/11/14 22:59:53;;;;;;;;;;;;;;;4.24;100.00;95687.97;10501223;28;3314;-69
2022/11/14 23:04:56;;;;;;;;;;;;;;;4.26;100.00;95675.25;10504884;28;3344;-70
2022/11/14 23:09:59;;;;;;;;;;;;;;;4.17;100.00;95679.31;10500804;28;3337;-70
2022/11/14 23:15:02;;;;;;;;;;;;;;;4.16;100.00;95674.22;10518518;28;3262;-75
2022/11/14 23:20:05;;;;;;;;;;;;;;;4.05;100.00;95673.19;10498260;28;3298;-69
2022/11/14 23:25:08;;;;;;;;;;;;;;;3.97;100.00;95669.06;10504591;28;3329;-69
2022/11/14 23:30:11;;;;;;;;;;;;;;;3.87;100.00;95670.69;10503634;28;3349;-70
2022/11/14 23:35:15;;;;;;;;;;;;;;;3.87;100.00;95668.03;10497400;28;2963;-70
2022/11/14 23:40:18;;;;;;;;;;;;;;;3.91;100.00;95661.22;10504662;28;3274;-68
2022/11/14 23:45:21;;;;;;;;;;;;;;;3.90;100.00;95659.59;10505359;28;3516;-69
2022/11/14 23:50:24;;;;;;;;;;;;;;;3.84;100.00;95661.34;10509348;28;3306;-69
2022/11/14 23:55:27;;;;;;;;;;;;;;;3.84;100.00;95655.22;10510168;28;3309;-68
